Pine Air, New York
Current Conditions -  °F | °C
As of 5:56 AM on Saturday 01 Nov 2014 (Local Time) from KISP Reporting Station
Light Rain Light Rain  
Wind Chill: 41°   Ceiling: 7000
Heat Index: 48°   Visibility: 10mi
Dew Point: 38°   Wind: 22mph
Humidity: 68%   Direction: 30°NNE
Pressure: 29.79"   Gusts: 29mph
Location:  40.7837°N, 73.252°W
Report Text: KISP 010956Z 03019G25KT 10SM -RA FEW035 SCT050 OVC070 09/03 A2979 RMK AO2 PK WND 04026/0906 RAB38 SLP089 FIRST AUGMENTED OBSERVATION P0000 T00890033
Loading
Personal Weather Stations






























Interactive Weather Map
Tropical Storm Tracking
New forecast layout! Learn more

10-Day Weather Forecast

Advertisements
Track Severe Weather on mobile